Flugplatz Perleberg (UL)

Hier findest Du alle Informationen zum Flugplatz Perleberg (UL).

Informationen für Piloten zum Flugplatz Perleberg

Hier findest Du alle relevanten Informationen, die Du als Pilot benötigst, um Perleberg anzufliegen.

Flugplatz: Perleberg ICAO-Code: UL Flugplatz
Frequenz Turm: 122,30 Mhz GAFOR Gebiet: -
Frequenz Ground: 122,30 Mhz Mogas: nein
Platzrunde: N 1000 ft Landegebühr: 3 €
Platzhöhe: Sunrise: 02:44 Uhr UTC
Pisten: 11/29 - 1400 m x 50 m, GRAS Sunset: 19:45 Uhr UTC

Mitglieder, die in Perleberg fliegen

Flugwetter am Flugplatz Perleberg

Die METAR Information stammen aus EDOP (40.37 km entfernt).

METAR Code:
2017/06/22 10:50
EDOP 221050Z 32014G26KT 280V360 3000 +TSRA SCT020CB BKN059 17/14 Q1015

Flugschulen am Flugplatz Perleberg

Am Flugplatz Perleberg gibt es leider keine Flugschule.

Benachbarte Flugplätze und Flugschulen

Es gibt 10 weitere Flugplätze in einem Umkreis von 50 km um den Flugplatz Perleberg.

Jetzt anmelden

Passwort vergessen

Umfrage Archiv

Würdet Ihr Autopiloten in ULs befürworten?

Ja
50.3 %
Nein
31.4 %
Mir ist es egal
18.3 %
Stimmen: 344 | Diskussion (38)
Anzeige: Roland Aircraft
Statistik Alle Mitglieder

Aktuell sind 25 Besucher online, davon 2 Mitglieder und 23 Gäste.


Mitglieder online:
AndreaVK  BeeEmm 

Anzeige: VFR Sprechfunk Simulator


Anzeige: Pocket FMS